Mandan, ND

10:52 AM CST on February 24, 2018 (GMT -0600)
Mandan

Weather History for KY19 - March, 2012

Change the Weather History Date:

Monday, March 12, 2012

  Actual Average (KBIS) Record (KBIS)
Temperature  
Mean Temperature 44 °F -  
Max Temperature 57 °F 35 °F 75 °F (2007)
Min Temperature 32 °F 20 °F -25 °F (1956)
Degree Days  
Heating Degree Days 20    
Moisture  
Dew Point 30 °F    
Average Humidity 65    
Maximum Humidity 100    
Minimum Humidity 21    
Precipitation  
Precipitation 0.00 in - - ()
Sea Level Pressure  
Sea Level Pressure 29.61 in    
Wind  
Wind Speed 15 mph (West)    
Max Wind Speed 36 mph    
Max Gust Speed 45 mph    
Visibility 8 miles    
Events Fog    
Averages and records for this station are not official NWS values.
T = Trace of Precipitation, MM = Missing Value Source: NWS Daily Summary

Daily Weather History Graph

Daily Weather History Graph

Search for Another Location

Airport or City:

Trip Planner

Search our weather history database for the weather conditions in past years. The results will help you decide how hot, cold, wet, or windy it might be!

Date:

Astronomy

Mar. 12, 2012 Rise Set
Actual Time 8:01 AM CDT 7:45 PM CDT
Civil Twilight 7:31 AM CDT 8:16 PM CDT
Nautical Twilight 6:55 AM CDT 8:51 PM CDT
Astronomical Twilight 6:20 AM CDT 9:27 PM CDT
Moon 12:31 AM CDT (3/12) 10:01 AM CDT (3/12)
Length of Visible Light 12h 44m
Length of Day
11h 44m
Waning Gibbous, 76% of the Moon is Illuminated
Mar 12
Waning Gibbous
Mar 14
Last Quarter
Mar 22
New
Mar 30
First Quarter
Apr 6
Full

Hourly Weather History & Observations

Time (CDT) Temp. Windchill Dew Point Humidity Pressure Visibility Wind Dir Wind Speed Gust Speed Precip Events Conditions
12:15 AM 46.4 °F 40.4 °F 46.4 °F 100% 29.49 in 10.0 mi SSE 13.8 mph - N/A   Clear
12:35 AM 46.4 °F 41.1 °F 46.4 °F 100% 29.49 in 10.0 mi SSE 11.5 mph - N/A   Clear
12:55 AM 46.4 °F 41.5 °F 46.4 °F 100% 29.48 in 10.0 mi SE 10.4 mph 18.4 mph N/A   Clear
1:15 AM 44.6 °F 38.1 °F 44.6 °F 100% 29.48 in 10.0 mi SSE 13.8 mph - N/A   Clear
1:35 AM 44.6 °F 38.1 °F 44.6 °F 100% 29.47 in 10.0 mi South 13.8 mph - N/A   Clear
1:55 AM 42.8 °F 36.6 °F 42.8 °F 100% 29.47 in 10.0 mi South 11.5 mph - N/A   Clear
2:15 AM 44.6 °F 38.4 °F 44.6 °F 100% 29.47 in 10.0 mi South 12.7 mph - N/A   Clear
2:35 AM 42.8 °F 36.6 °F 42.8 °F 100% 29.47 in 10.0 mi SSE 11.5 mph - N/A   Clear
2:55 AM 41.0 °F 36.4 °F 41.0 °F 100% 29.47 in 10.0 mi South 6.9 mph - N/A   Clear
3:15 AM 41.0 °F 35.2 °F 41.0 °F 100% 29.47 in 10.0 mi South 9.2 mph - N/A   Clear
3:35 AM 41.0 °F 33.9 °F 41.0 °F 100% 29.47 in 10.0 mi South 12.7 mph - N/A   Clear
3:55 AM 39.2 °F 31.6 °F 39.2 °F 100% 29.46 in 10.0 mi South 12.7 mph - N/A   Clear
4:15 AM 39.2 °F 32.0 °F 39.2 °F 100% 29.46 in 10.0 mi South 11.5 mph - N/A   Clear
4:55 AM 37.4 °F 30.3 °F 37.4 °F 100% 29.46 in 4.0 mi South 10.4 mph - N/A   Clear
5:15 AM 35.6 °F 28.6 °F 35.6 °F 100% 29.46 in 0.5 mi South 9.2 mph - N/A Fog Fog
5:35 AM 37.4 °F 30.3 °F 37.4 °F 100% 29.46 in 4.0 mi South 10.4 mph - N/A   Clear
5:55 AM 37.4 °F 29.8 °F 37.4 °F 100% 29.47 in 5.0 mi South 11.5 mph - N/A   Clear
6:15 AM 37.4 °F 29.8 °F 37.4 °F 100% 29.48 in 0.2 mi South 11.5 mph - N/A   Overcast
6:35 AM 35.6 °F 27.5 °F 35.6 °F 100% 29.48 in 0.2 mi South 11.5 mph - N/A Fog Fog
6:55 AM 35.6 °F 27.5 °F 35.6 °F 100% 29.49 in 0.2 mi South 11.5 mph - N/A Fog Fog
7:15 AM 35.6 °F 29.9 °F 35.6 °F 100% 29.49 in 0.2 mi SSW 6.9 mph - N/A Fog Fog
7:35 AM 33.8 °F 28.6 °F 33.8 °F 100% 29.50 in 0.2 mi SSW 5.8 mph - N/A Fog Fog
7:55 AM 32.0 °F 26.4 °F 32.0 °F 100% 29.50 in 0.2 mi SSW 5.8 mph - N/A Fog Fog
8:15 AM 32.0 °F 28.7 °F 32.0 °F 100% 29.50 in 0.8 mi WSW 3.5 mph - N/A   Mist
8:35 AM 32.0 °F 22.5 °F 32.0 °F 100% 29.53 in 8.0 mi West 12.7 mph - N/A   Clear
8:55 AM 32.0 °F 22.5 °F 32.0 °F 100% 29.54 in 10.0 mi WNW 12.7 mph - N/A   Clear
9:15 AM 35.6 °F 27.1 °F 35.6 °F 100% 29.55 in 10.0 mi WNW 12.7 mph - N/A   Clear
9:35 AM 39.2 °F 30.5 °F 39.2 °F 100% 29.56 in 10.0 mi WNW 16.1 mph - N/A   Clear
9:55 AM 41.0 °F 31.6 °F 39.2 °F 93% 29.57 in 10.0 mi NW 20.7 mph 24.2 mph N/A   Clear
10:15 AM 44.6 °F 35.3 °F 39.2 °F 81% 29.59 in 10.0 mi NW 26.5 mph 33.4 mph N/A   Clear
10:35 AM 46.4 °F 37.4 °F 35.6 °F 66% 29.60 in 10.0 mi NW 28.8 mph 39.1 mph N/A   Clear
10:55 AM 48.2 °F - 35.6 °F 62% 29.62 in 10.0 mi NW 28.8 mph 38.0 mph N/A   Clear
11:15 AM 48.2 °F - 32.0 °F 54% 29.64 in 10.0 mi NW 33.4 mph 43.7 mph N/A   Clear
11:35 AM 50.0 °F - 26.6 °F 40% 29.65 in 10.0 mi NW 33.4 mph 44.9 mph N/A   Clear
11:55 AM 50.0 °F - 23.0 °F 35% 29.67 in 10.0 mi NW 34.5 mph 44.9 mph N/A   Clear
12:15 PM 51.8 °F - 21.2 °F 30% 29.68 in 10.0 mi NW 29.9 mph 44.9 mph N/A   Clear
12:35 PM 53.6 °F - 21.2 °F 28% 29.68 in 10.0 mi NW 29.9 mph 43.7 mph N/A   Clear
12:55 PM 53.6 °F - 23.0 °F 30% 29.68 in 10.0 mi WNW 35.7 mph 42.6 mph N/A   Clear
1:15 PM 55.4 °F - 24.8 °F 31% 29.69 in 10.0 mi NW 26.5 mph 39.1 mph N/A   Clear
1:55 PM 55.4 °F - 24.8 °F 31% 29.69 in 10.0 mi NW 21.9 mph 34.5 mph N/A   Clear
2:15 PM 57.2 °F - 21.2 °F 25% 29.68 in 10.0 mi NW 24.2 mph 32.2 mph N/A   Clear
2:35 PM 57.2 °F - 21.2 °F 25% 29.68 in 10.0 mi NW 23.0 mph 36.8 mph N/A   Clear
2:55 PM 57.2 °F - 21.2 °F 25% 29.69 in 10.0 mi WNW 27.6 mph 35.7 mph N/A   Clear
3:15 PM 57.2 °F - 19.4 °F 23% 29.69 in 10.0 mi NW 23.0 mph 34.5 mph N/A   Clear
3:35 PM 57.2 °F - 17.6 °F 21% 29.70 in 10.0 mi WNW 29.9 mph 38.0 mph N/A   Clear
3:55 PM 57.2 °F - 17.6 °F 21% 29.71 in 10.0 mi WNW 26.5 mph 34.5 mph N/A   Clear
4:15 PM 57.2 °F - 17.6 °F 21% 29.72 in 10.0 mi WNW 23.0 mph 35.7 mph N/A   Clear
4:35 PM 55.4 °F - 17.6 °F 23% 29.73 in 10.0 mi WNW 25.3 mph 39.1 mph N/A   Clear
4:55 PM 55.4 °F - 17.6 °F 23% 29.73 in 10.0 mi WNW 23.0 mph 34.5 mph N/A   Clear
5:15 PM 55.4 °F - 17.6 °F 23% 29.73 in 10.0 mi WNW 23.0 mph 31.1 mph N/A   Clear
5:35 PM 55.4 °F - 17.6 °F 23% 29.74 in 10.0 mi WNW 17.3 mph 29.9 mph N/A   Clear
5:55 PM 55.4 °F - 17.6 °F 23% 29.74 in 10.0 mi WNW 18.4 mph 27.6 mph N/A   Clear
6:15 PM 55.4 °F - 17.6 °F 23% 29.75 in 10.0 mi WNW 20.7 mph 25.3 mph N/A   Clear
6:35 PM 53.6 °F - 15.8 °F 22% 29.75 in 10.0 mi WNW 17.3 mph 28.8 mph N/A   Clear
6:55 PM 53.6 °F - 14.0 °F 21% 29.76 in 10.0 mi WNW 15.0 mph - N/A   Clear
7:55 PM 44.6 °F 40.2 °F 14.0 °F 29% 29.79 in 10.0 mi WNW 8.1 mph - N/A   Clear
8:15 PM 41.0 °F 37.1 °F 15.8 °F 36% 29.80 in 10.0 mi West 5.8 mph - N/A   Clear
8:35 PM 39.2 °F 34.2 °F 17.6 °F 42% 29.80 in 10.0 mi West 6.9 mph - N/A   Clear
8:55 PM 39.2 °F 34.2 °F 15.8 °F 39% 29.81 in 10.0 mi WNW 6.9 mph - N/A   Clear
9:15 PM 41.0 °F 37.1 °F 15.8 °F 36% 29.82 in 10.0 mi West 5.8 mph - N/A   Clear
9:55 PM 35.6 °F 32.8 °F 17.6 °F 48% 29.83 in 10.0 mi WNW 3.5 mph - N/A   Clear
10:15 PM 33.8 °F 27.7 °F 17.6 °F 52% 29.84 in 10.0 mi NNW 6.9 mph - N/A   Clear
10:35 PM 37.4 °F 32.1 °F 17.6 °F 45% 29.84 in 10.0 mi NNW 6.9 mph - N/A   Clear
10:55 PM 35.6 °F 29.9 °F 17.6 °F 48% 29.84 in 10.0 mi North 6.9 mph - N/A   Clear
11:15 PM 35.6 °F 29.9 °F 17.6 °F 48% 29.84 in 10.0 mi NNE 6.9 mph - N/A   Clear
11:35 PM 39.2 °F 35.0 °F 15.8 °F 39% 29.84 in 10.0 mi NNE 5.8 mph - N/A   Clear
11:55 PM 39.2 °F 35.9 °F 15.8 °F 39% 29.84 in 10.0 mi East 4.6 mph - N/A   Clear